createdAt,value
2023-12-24T00:00:10.937Z,98882.25
2023-12-24T00:02:39.721Z,98885.47
2023-12-24T00:05:10.593Z,98885.69
2023-12-24T00:07:39.317Z,98895.69
2023-12-24T00:10:08.953Z,98895.69
2023-12-24T00:12:39.139Z,98892.72
2023-12-24T00:15:09.156Z,98890.28
2023-12-24T00:17:38.220Z,98889.06
2023-12-24T00:20:08.755Z,98890.69
2023-12-24T00:22:38.915Z,98882.88
2023-12-24T00:25:08.712Z,98875.44
2023-12-24T00:27:37.418Z,98874.03
2023-12-24T00:30:07.577Z,98887.25
2023-12-24T00:32:36.505Z,98886.25
2023-12-24T00:35:05.956Z,98887.66
2023-12-24T00:37:34.693Z,98882.28
2023-12-24T00:40:05.439Z,98883.06
2023-12-24T00:42:34.133Z,98880.25
2023-12-24T00:45:02.879Z,98878.06
2023-12-24T00:47:31.689Z,98881.66
2023-12-24T00:50:00.514Z,98864.19
2023-12-24T00:52:29.275Z,98874.63
2023-12-24T00:54:57.980Z,98863.03
2023-12-24T00:57:28.081Z,98870.03
2023-12-24T00:59:56.927Z,98864.81
2023-12-24T01:02:25.647Z,98863.22
2023-12-24T01:04:54.509Z,98874.44
2023-12-24T01:07:23.339Z,98864.22
2023-12-24T01:09:52.552Z,98859.81
2023-12-24T01:12:21.269Z,98861.78
2023-12-24T01:14:52.480Z,98871.03
2023-12-24T01:17:21.335Z,98868.81
2023-12-24T01:19:50.108Z,98875.44
2023-12-24T01:22:18.808Z,98873.03
2023-12-24T01:24:47.610Z,98876.88
2023-12-24T01:27:16.396Z,98877.44
2023-12-24T01:29:45.126Z,98881.88
2023-12-24T01:32:15.174Z,98887.88
2023-12-24T01:34:43.836Z,98892.31
2023-12-24T01:37:12.491Z,98888.50
2023-12-24T01:39:41.151Z,98885.28
2023-12-24T01:42:09.820Z,98885.06
2023-12-24T01:44:38.557Z,98890.09
2023-12-24T01:47:08.132Z,98884.28
2023-12-24T01:49:38.385Z,98861.41
2023-12-24T01:52:07.366Z,98869.84
2023-12-24T01:54:36.156Z,98870.22
2023-12-24T01:57:06.194Z,98862.59
2023-12-24T01:59:35.927Z,98867.78
2023-12-24T02:02:05.703Z,98861.41
2023-12-24T02:04:34.606Z,98865.59
2023-12-24T02:07:05.438Z,98866.63
2023-12-24T02:09:34.175Z,98876.84
2023-12-24T02:12:02.944Z,98873.03
2023-12-24T02:14:31.756Z,98864.81
2023-12-24T02:17:01.321Z,98858.97
2023-12-24T02:19:30.457Z,98858.59
2023-12-24T02:22:00.505Z,98857.00
2023-12-24T02:24:29.313Z,98861.00
2023-12-24T02:27:07.694Z,98858.41
2023-12-24T02:29:41.239Z,98851.97
2023-12-24T02:32:17.103Z,98851.97
2023-12-24T02:34:49.037Z,98866.84
2023-12-24T02:37:19.255Z,98867.00
2023-12-24T02:39:48.017Z,98863.03
2023-12-24T02:42:16.774Z,98869.41
2023-12-24T02:44:45.572Z,98880.88
2023-12-24T02:47:14.298Z,98872.63
2023-12-24T02:49:43.110Z,98871.84
2023-12-24T02:52:11.044Z,98863.84
2023-12-24T02:54:41.059Z,98875.25
2023-12-24T02:57:09.805Z,98868.25
2023-12-24T02:59:38.612Z,98869.84
2023-12-24T03:02:07.375Z,98873.03
2023-12-24T03:04:36.104Z,98871.44
2023-12-24T03:07:04.971Z,98861.81
2023-12-24T03:09:33.765Z,98866.84
2023-12-24T03:12:04.074Z,98869.03
2023-12-24T03:14:32.730Z,98865.63
2023-12-24T03:17:01.608Z,98860.22
2023-12-24T03:19:30.396Z,98843.78
2023-12-24T03:21:59.159Z,98857.00
2023-12-24T03:24:27.964Z,98831.13
2023-12-24T03:26:56.733Z,98846.97
2023-12-24T03:29:26.855Z,98830.91
2023-12-24T03:31:55.651Z,98841.94
2023-12-24T03:34:24.416Z,98846.75
2023-12-24T03:36:53.150Z,98841.34
2023-12-24T03:39:21.822Z,98854.00
2023-12-24T03:41:50.479Z,98859.81
2023-12-24T03:44:19.195Z,98855.19
2023-12-24T03:46:49.320Z,98854.59
2023-12-24T03:49:18.187Z,98839.56
2023-12-24T03:51:48.543Z,98841.94
2023-12-24T03:54:17.863Z,98849.78
2023-12-24T03:56:46.619Z,98844.56
2023-12-24T03:59:17.668Z,98846.97
2023-12-24T04:01:46.492Z,98844.94
2023-12-24T04:04:16.541Z,98837.94
2023-12-24T04:06:48.068Z,98832.13
2023-12-24T04:09:16.785Z,98837.72
2023-12-24T04:11:45.534Z,98842.16
2023-12-24T04:14:14.586Z,98827.91
2023-12-24T04:16:43.360Z,98815.88
2023-12-24T04:19:12.154Z,98813.69
2023-12-24T04:21:42.285Z,98813.69
2023-12-24T04:24:11.106Z,98824.91
2023-12-24T04:26:39.896Z,98816.06
2023-12-24T04:29:08.655Z,98808.06
2023-12-24T04:31:40.139Z,98818.69
2023-12-24T04:34:09.188Z,98818.06
2023-12-24T04:36:37.981Z,98818.50
2023-12-24T04:39:08.541Z,98828.13
2023-12-24T04:41:38.070Z,98826.94
2023-12-24T04:44:07.055Z,98818.28
2023-12-24T04:46:41.697Z,98818.88
2023-12-24T04:49:10.695Z,98811.84
2023-12-24T04:51:42.128Z,98796.41
2023-12-24T04:54:12.143Z,98797.19
2023-12-24T04:56:40.936Z,98794.38
2023-12-24T04:59:09.767Z,98789.16
2023-12-24T05:01:38.481Z,98775.72
2023-12-24T05:04:07.720Z,98765.91
2023-12-24T05:06:36.450Z,98765.31
2023-12-24T05:09:05.196Z,98753.06
2023-12-24T05:11:35.273Z,98759.88
2023-12-24T05:14:04.047Z,98746.88
2023-12-24T05:16:32.741Z,98745.47
2023-12-24T05:19:01.640Z,98730.22
2023-12-24T05:21:31.032Z,98735.06
2023-12-24T05:24:00.018Z,98745.06
2023-12-24T05:26:28.791Z,98751.50
2023-12-24T05:28:58.890Z,98749.88
2023-12-24T05:31:27.667Z,98754.50
2023-12-24T05:33:56.437Z,98748.91
2023-12-24T05:36:25.157Z,98749.47
2023-12-24T05:38:53.827Z,98754.09
2023-12-24T05:41:23.578Z,98753.50
2023-12-24T05:43:53.345Z,98749.69
2023-12-24T05:46:24.249Z,98761.53
2023-12-24T05:48:53.095Z,98772.56
2023-12-24T05:51:21.838Z,98766.13
2023-12-24T05:53:50.482Z,98767.94
2023-12-24T05:56:19.225Z,98774.38
2023-12-24T05:58:47.918Z,98790.41
2023-12-24T06:01:16.629Z,98776.94
2023-12-24T06:03:46.874Z,98775.56
2023-12-24T06:06:15.744Z,98775.16
2023-12-24T06:08:44.698Z,98770.94
2023-12-24T06:11:17.452Z,98779.97
2023-12-24T06:13:46.221Z,98761.34
2023-12-24T06:16:14.938Z,98755.72
2023-12-24T06:18:44.189Z,98757.69
2023-12-24T06:21:14.566Z,98748.09
2023-12-24T06:23:43.309Z,98745.13
2023-12-24T06:26:12.090Z,98751.53
2023-12-24T06:28:40.881Z,98745.91
2023-12-24T06:31:10.931Z,98742.72
2023-12-24T06:33:39.809Z,98753.31
2023-12-24T06:36:08.931Z,98742.69
2023-12-24T06:38:39.082Z,98731.66
2023-12-24T06:41:07.850Z,98726.63
2023-12-24T06:43:36.655Z,98724.84
2023-12-24T06:46:07.598Z,98716.59
2023-12-24T06:48:36.397Z,98710.19
2023-12-24T06:51:05.582Z,98712.00
2023-12-24T06:53:34.353Z,98713.84
2023-12-24T06:56:04.981Z,98698.19
2023-12-24T06:58:33.696Z,98711.81
2023-12-24T07:01:02.366Z,98704.97
2023-12-24T07:03:31.146Z,98698.41
2023-12-24T07:06:00.568Z,98697.16
2023-12-24T07:08:30.992Z,98698.16
2023-12-24T07:10:59.872Z,98691.38
2023-12-24T07:13:29.924Z,98691.16
2023-12-24T07:16:00.860Z,98680.31
2023-12-24T07:18:29.688Z,98695.75
2023-12-24T07:20:58.483Z,98686.72
2023-12-24T07:23:27.173Z,98689.75
2023-12-24T07:25:55.871Z,98694.53
2023-12-24T07:28:24.638Z,98688.09
2023-12-24T07:30:54.732Z,98677.88
2023-12-24T07:33:23.665Z,98680.50
2023-12-24T07:35:52.769Z,98675.66
2023-12-24T07:38:21.573Z,98699.72
2023-12-24T07:40:50.357Z,98700.91
2023-12-24T07:43:19.151Z,98695.50
2023-12-24T07:45:47.898Z,98692.44
2023-12-24T07:48:18.150Z,98686.00
2023-12-24T07:50:47.189Z,98678.19
2023-12-24T07:53:15.942Z,98678.22
2023-12-24T07:55:44.748Z,98675.03
2023-12-24T07:58:13.608Z,98677.22
2023-12-24T08:00:42.372Z,98663.75
2023-12-24T08:03:11.208Z,98666.66
2023-12-24T08:05:41.359Z,98673.94
2023-12-24T08:08:10.197Z,98681.28
2023-12-24T08:10:38.916Z,98672.41
2023-12-24T08:13:12.264Z,98682.00
2023-12-24T08:15:43.092Z,98678.84
2023-12-24T08:18:12.097Z,98695.28
2023-12-24T08:20:42.598Z,98692.13
2023-12-24T08:23:12.199Z,98689.09
2023-12-24T08:25:41.007Z,98692.31
2023-12-24T08:28:09.718Z,98682.31
2023-12-24T08:30:38.562Z,98664.63
2023-12-24T08:33:07.710Z,98673.44
2023-12-24T08:35:37.665Z,98676.81
2023-12-24T08:38:07.956Z,98660.56
2023-12-24T08:40:36.651Z,98648.16
2023-12-24T08:43:06.208Z,98633.28
2023-12-24T08:45:34.957Z,98628.25
2023-12-24T08:48:04.069Z,98627.66
2023-12-24T08:50:33.227Z,98626.03
2023-12-24T08:53:02.001Z,98623.78
2023-12-24T08:55:32.087Z,98632.44
2023-12-24T08:58:01.155Z,98628.25
2023-12-24T09:00:30.014Z,98616.00
2023-12-24T09:02:58.801Z,98601.94
2023-12-24T09:05:27.669Z,98599.25
2023-12-24T09:07:56.469Z,98610.31
2023-12-24T09:10:25.227Z,98604.47
2023-12-24T09:12:55.640Z,98612.91
2023-12-24T09:15:24.637Z,98635.19
2023-12-24T09:17:53.590Z,98626.72
2023-12-24T09:20:22.464Z,98641.53
2023-12-24T09:22:55.166Z,98639.13
2023-12-24T09:25:24.190Z,98651.38
2023-12-24T09:27:53.012Z,98665.19
2023-12-24T09:30:25.448Z,98661.19
2023-12-24T09:32:55.057Z,98670.66
2023-12-24T09:35:24.252Z,98663.84
2023-12-24T09:37:53.053Z,98672.09
2023-12-24T09:40:21.754Z,98664.25
2023-12-24T09:42:51.348Z,98652.84
2023-12-24T09:45:20.482Z,98647.63
2023-12-24T09:47:50.664Z,98642.47
2023-12-24T09:50:19.578Z,98652.50
2023-12-24T09:52:49.301Z,98640.44
2023-12-24T09:55:18.014Z,98649.28
2023-12-24T09:57:46.781Z,98641.44
2023-12-24T10:00:17.379Z,98641.63
2023-12-24T10:02:47.052Z,98650.47
2023-12-24T10:05:17.745Z,98656.50
2023-12-24T10:07:46.910Z,98644.78
2023-12-24T10:10:16.034Z,98652.06
2023-12-24T10:12:44.880Z,98650.38
2023-12-24T10:15:14.802Z,98656.06
2023-12-24T10:17:43.738Z,98645.63
2023-12-24T10:20:13.001Z,98642.81
2023-12-24T10:22:44.374Z,98642.41
2023-12-24T10:25:17.034Z,98646.84
2023-12-24T10:27:45.964Z,98619.13
2023-12-24T10:30:17.440Z,98635.97
2023-12-24T10:32:46.865Z,98634.59
2023-12-24T10:35:23.242Z,98626.06
2023-12-24T10:37:53.506Z,98618.84
2023-12-24T10:40:22.430Z,98619.06
2023-12-24T10:42:51.320Z,98606.63
2023-12-24T10:45:20.268Z,98600.97
2023-12-24T10:47:49.769Z,98614.19
2023-12-24T10:50:18.819Z,98614.97
2023-12-24T10:52:47.597Z,98616.03
2023-12-24T10:55:17.995Z,98610.38
2023-12-24T10:57:54.810Z,98610.16
2023-12-24T11:00:23.600Z,98613.28
2023-12-24T11:02:52.846Z,98613.44
2023-12-24T11:05:48.546Z,98617.06
2023-12-24T11:08:33.129Z,98620.63
2023-12-24T11:11:05.599Z,98624.03
2023-12-24T11:13:47.495Z,98610.13
2023-12-24T11:16:43.301Z,98599.47
2023-12-24T11:19:25.460Z,98602.88
2023-12-24T11:22:15.348Z,98600.66
2023-12-24T11:24:53.678Z,98591.78
2023-12-24T11:27:53.059Z,98601.50
2023-12-24T11:30:21.917Z,98593.88
2023-12-24T11:32:51.029Z,98577.56
2023-12-24T11:35:53.016Z,98565.81
2023-12-24T11:38:41.368Z,98581.91
2023-12-24T11:41:11.673Z,98585.53
2023-12-24T11:43:42.693Z,98605.66
2023-12-24T11:46:11.794Z,98612.25
2023-12-24T11:48:40.678Z,98604.41
2023-12-24T11:51:10.694Z,98596.94
2023-12-24T11:53:40.566Z,98597.38
2023-12-24T11:56:12.022Z,98616.22
2023-12-24T11:58:43.125Z,98598.53
2023-12-24T12:01:11.976Z,98619.88
2023-12-24T12:03:40.951Z,98614.22
2023-12-24T12:06:09.804Z,98614.56
2023-12-24T12:08:38.626Z,98603.41
2023-12-24T12:11:07.367Z,98606.22
2023-12-24T12:13:36.080Z,98606.00
2023-12-24T12:16:06.684Z,98617.41
2023-12-24T12:18:35.555Z,98605.22
2023-12-24T12:21:04.580Z,98600.56
2023-12-24T12:23:33.379Z,98606.59
2023-12-24T12:26:02.188Z,98606.38
2023-12-24T12:28:30.927Z,98611.97
2023-12-24T12:30:59.871Z,98620.75
2023-12-24T12:33:30.150Z,98612.41
2023-12-24T12:35:59.014Z,98610.59
2023-12-24T12:38:27.877Z,98609.28
2023-12-24T12:40:56.664Z,98608.50
2023-12-24T12:43:25.462Z,98598.25
2023-12-24T12:45:54.250Z,98603.78
2023-12-24T12:48:23.093Z,98609.13
2023-12-24T12:50:53.392Z,98608.56
2023-12-24T12:53:25.328Z,98615.50
2023-12-24T12:56:01.845Z,98613.50
2023-12-24T12:58:30.640Z,98615.66
2023-12-24T13:00:59.636Z,98613.50
2023-12-24T13:03:28.459Z,98625.13
2023-12-24T13:05:59.529Z,98634.91
2023-12-24T13:08:30.409Z,98629.63
2023-12-24T13:11:07.814Z,98623.78
2023-12-24T13:13:36.656Z,98635.00
2023-12-24T13:16:07.401Z,98632.28
2023-12-24T13:18:37.139Z,98631.50
2023-12-24T13:21:09.834Z,98612.75
2023-12-24T13:23:38.773Z,98615.72
2023-12-24T13:26:07.738Z,98636.06
2023-12-24T13:28:38.102Z,98626.06
2023-12-24T13:31:08.501Z,98618.84
2023-12-24T13:33:37.384Z,98624.19
2023-12-24T13:36:09.270Z,98621.78
2023-12-24T13:38:38.184Z,98633.69
2023-12-24T13:41:06.945Z,98617.34
2023-12-24T13:43:35.753Z,98617.69
2023-12-24T13:46:04.554Z,98630.63
2023-12-24T13:48:33.383Z,98621.47
2023-12-24T13:51:02.508Z,98614.44
2023-12-24T13:53:33.497Z,98613.63
2023-12-24T13:56:03.384Z,98603.13
2023-12-24T13:58:33.170Z,98618.72
2023-12-24T14:01:01.022Z,98617.50
2023-12-24T14:03:30.217Z,98611.47
2023-12-24T14:06:00.123Z,98612.47
2023-12-24T14:08:29.980Z,98609.72
2023-12-24T14:11:00.297Z,98605.44
2023-12-24T14:13:29.015Z,98604.78
2023-12-24T14:15:58.324Z,98614.78
2023-12-24T14:18:27.497Z,98613.78
2023-12-24T14:20:56.479Z,98620.91
2023-12-24T14:23:25.302Z,98617.41
2023-12-24T14:25:54.040Z,98626.28
2023-12-24T14:28:24.133Z,98621.19
2023-12-24T14:30:52.945Z,98630.63
2023-12-24T14:33:22.032Z,98634.84
2023-12-24T14:35:50.931Z,98631.94
2023-12-24T14:38:19.714Z,98633.53
2023-12-24T14:40:54.045Z,98631.06
2023-12-24T14:43:24.220Z,98641.16
2023-12-24T14:45:52.920Z,98630.69
2023-12-24T14:48:21.803Z,98627.44
2023-12-24T14:50:50.754Z,98636.31
2023-12-24T14:53:19.586Z,98634.53
2023-12-24T14:55:48.370Z,98633.09
2023-12-24T14:58:17.107Z,98624.53
2023-12-24T15:00:49.211Z,98624.69
2023-12-24T15:03:18.407Z,98619.00
2023-12-24T15:05:47.261Z,98612.28
2023-12-24T15:08:16.120Z,98611.63
2023-12-24T15:10:45.155Z,98622.19
2023-12-24T15:13:14.328Z,98628.09
2023-12-24T15:15:43.128Z,98621.41
2023-12-24T15:18:13.846Z,98615.75
2023-12-24T15:20:43.577Z,98611.97
2023-12-24T15:23:12.722Z,98627.75
2023-12-24T15:25:41.485Z,98627.97
2023-12-24T15:28:10.284Z,98619.53
2023-12-24T15:30:39.072Z,98616.34
2023-12-24T15:33:07.971Z,98615.91
2023-12-24T15:35:38.242Z,98626.78
2023-12-24T15:38:07.047Z,98618.72
2023-12-24T15:40:36.013Z,98622.72
2023-12-24T15:43:05.171Z,98606.22
2023-12-24T15:45:37.816Z,98611.47
2023-12-24T15:48:09.020Z,98603.06
2023-12-24T15:50:39.407Z,98601.88
2023-12-24T15:53:08.231Z,98614.88
2023-12-24T15:55:37.478Z,98617.84
2023-12-24T15:58:06.363Z,98632.25
2023-12-24T16:00:35.214Z,98616.63
2023-12-24T16:03:04.416Z,98604.34
2023-12-24T16:05:33.961Z,98605.22
2023-12-24T16:08:04.557Z,98600.22
2023-12-24T16:10:33.465Z,98614.28
2023-12-24T16:13:02.176Z,98618.28
2023-12-24T16:15:32.430Z,98625.75
2023-12-24T16:18:02.668Z,98617.69
2023-12-24T16:20:31.651Z,98598.38
2023-12-24T16:23:00.416Z,98611.47
2023-12-24T16:25:31.043Z,98622.28
2023-12-24T16:27:59.720Z,98604.94
2023-12-24T16:30:28.607Z,98608.78
2023-12-24T16:32:57.773Z,98604.94
2023-12-24T16:35:26.845Z,98604.34
2023-12-24T16:37:55.634Z,98593.88
2023-12-24T16:40:25.969Z,98593.25
2023-12-24T16:42:56.149Z,98601.28
2023-12-24T16:45:25.224Z,98598.09
2023-12-24T16:47:54.437Z,98604.50
2023-12-24T16:50:23.391Z,98600.88
2023-12-24T16:52:52.407Z,98588.44
2023-12-24T16:55:21.268Z,98589.88
2023-12-24T16:57:50.034Z,98573.19
2023-12-24T17:00:21.397Z,98590.47
2023-12-24T17:02:50.311Z,98595.34
2023-12-24T17:05:19.453Z,98584.47
2023-12-24T17:07:48.214Z,98588.03
2023-12-24T17:10:17.026Z,98596.28
2023-12-24T17:12:45.733Z,98620.63
2023-12-24T17:15:14.667Z,98601.09
2023-12-24T17:17:44.852Z,98602.66
2023-12-24T17:20:13.913Z,98593.59
2023-12-24T17:22:42.741Z,98602.44
2023-12-24T17:25:11.602Z,98600.50
2023-12-24T17:27:40.376Z,98606.50
2023-12-24T17:30:10.348Z,98602.88
2023-12-24T17:32:39.184Z,98604.06
2023-12-24T17:35:10.359Z,98618.00
2023-12-24T17:37:39.303Z,98620.19
2023-12-24T17:40:09.720Z,98622.19
2023-12-24T17:42:38.448Z,98622.19
2023-12-24T17:45:08.919Z,98628.69
2023-12-24T17:47:38.616Z,98627.44
2023-12-24T17:50:09.224Z,98620.63
2023-12-24T17:52:38.026Z,98609.00
2023-12-24T17:55:07.642Z,98611.31
2023-12-24T17:57:36.443Z,98615.50
2023-12-24T18:00:07.291Z,98606.88
2023-12-24T18:02:38.398Z,98620.97
2023-12-24T18:05:09.768Z,98613.13
2023-12-24T18:07:40.521Z,98611.88
2023-12-24T18:10:09.485Z,98610.44
2023-12-24T18:12:38.258Z,98611.88
2023-12-24T18:15:08.061Z,98610.88
2023-12-24T18:17:37.661Z,98610.78
2023-12-24T18:20:10.540Z,98618.28
2023-12-24T18:22:42.475Z,98622.84
2023-12-24T18:25:11.565Z,98636.16
2023-12-24T18:27:40.326Z,98631.28
2023-12-24T18:30:10.328Z,98631.28
2023-12-24T18:32:39.210Z,98633.81
2023-12-24T18:35:08.424Z,98633.25
2023-12-24T18:37:37.162Z,98640.50
2023-12-24T18:40:09.017Z,98631.41
2023-12-24T18:42:37.728Z,98632.88
2023-12-24T18:45:07.474Z,98637.09
2023-12-24T18:47:36.306Z,98633.25
2023-12-24T18:50:06.636Z,98639.25
2023-12-24T18:52:35.450Z,98642.84
2023-12-24T18:55:05.027Z,98648.06
2023-12-24T18:57:35.173Z,98651.13
2023-12-24T19:00:04.225Z,98653.53
2023-12-24T19:02:33.094Z,98662.53
2023-12-24T19:05:01.964Z,98651.28
2023-12-24T19:07:31.481Z,98652.06
2023-12-24T19:10:12.505Z,98650.47
2023-12-24T19:12:42.740Z,98658.53
2023-12-24T19:15:11.707Z,98670.16
2023-12-24T19:17:40.596Z,98668.13
2023-12-24T19:20:10.624Z,98656.28
2023-12-24T19:22:39.437Z,98657.78
2023-12-24T19:25:09.016Z,98650.88
2023-12-24T19:27:38.123Z,98643.69
2023-12-24T19:30:09.645Z,98646.53
2023-12-24T19:32:38.453Z,98637.53
2023-12-24T19:35:07.911Z,98632.75
2023-12-24T19:37:36.822Z,98620.00
2023-12-24T19:40:06.921Z,98621.84
2023-12-24T19:42:35.919Z,98637.53
2023-12-24T19:45:05.212Z,98621.06
2023-12-24T19:47:35.407Z,98617.53
2023-12-24T19:50:04.251Z,98618.56
2023-12-24T19:52:39.603Z,98625.03
2023-12-24T19:55:09.806Z,98621.63
2023-12-24T19:57:38.690Z,98632.66
2023-12-24T20:00:08.524Z,98617.31
2023-12-24T20:02:40.481Z,98619.25
2023-12-24T20:05:09.958Z,98622.47
2023-12-24T20:07:38.864Z,98637.72
2023-12-24T20:10:09.187Z,98641.34
2023-12-24T20:12:38.273Z,98637.28
2023-12-24T20:15:07.755Z,98634.09
2023-12-24T20:17:38.106Z,98642.97
2023-12-24T20:20:08.029Z,98623.63
2023-12-24T20:22:37.021Z,98628.41
2023-12-24T20:25:06.734Z,98633.19
2023-12-24T20:27:35.574Z,98642.44
2023-12-24T20:30:04.844Z,98648.13
2023-12-24T20:32:33.839Z,98644.81
2023-12-24T20:35:04.207Z,98633.91
2023-12-24T20:37:32.977Z,98629.47
2023-12-24T20:40:01.984Z,98625.50
2023-12-24T20:42:30.829Z,98628.53
2023-12-24T20:44:59.731Z,98613.41
2023-12-24T20:47:29.901Z,98627.50
2023-12-24T20:49:58.868Z,98626.84
2023-12-24T20:52:28.972Z,98637.19
2023-12-24T20:54:57.786Z,98654.06
2023-12-24T20:57:25.630Z,98648.22
2023-12-24T20:59:54.587Z,98649.75
2023-12-24T21:02:23.544Z,98655.53
2023-12-24T21:04:52.505Z,98657.00
2023-12-24T21:07:21.525Z,98663.25
2023-12-24T21:09:53.334Z,98656.44
2023-12-24T21:12:24.455Z,98675.91
2023-12-24T21:14:53.354Z,98674.75
2023-12-24T21:17:22.302Z,98683.19
2023-12-24T21:19:51.537Z,98695.47
2023-12-24T21:22:20.398Z,98690.81
2023-12-24T21:24:49.342Z,98689.00
2023-12-24T21:27:20.643Z,98677.28
2023-12-24T21:29:49.536Z,98690.72
2023-12-24T21:32:18.503Z,98703.91
2023-12-24T21:34:47.497Z,98709.34
2023-12-24T21:37:16.603Z,98720.81
2023-12-24T21:39:45.580Z,98716.75
2023-12-24T21:42:14.565Z,98717.66
2023-12-24T21:44:44.880Z,98733.69
2023-12-24T21:47:13.924Z,98720.72
2023-12-24T21:49:42.850Z,98723.78
2023-12-24T21:52:11.967Z,98727.75
2023-12-24T21:54:41.204Z,98734.59
2023-12-24T21:57:10.155Z,98750.22
2023-12-24T21:59:39.111Z,98747.38
2023-12-24T22:02:09.560Z,98753.84
2023-12-24T22:04:38.512Z,98752.00
2023-12-24T22:07:07.365Z,98752.47
2023-12-24T22:09:36.244Z,98753.13
2023-12-24T22:12:05.868Z,98747.44
2023-12-24T22:14:35.569Z,98746.28
2023-12-24T22:17:04.699Z,98739.47
2023-12-24T22:19:35.519Z,98723.31
2023-12-24T22:22:04.536Z,98727.75
2023-12-24T22:24:33.386Z,98724.41
2023-12-24T22:27:02.428Z,98718.38
2023-12-24T22:29:31.358Z,98725.78
2023-12-24T22:32:00.134Z,98729.41
2023-12-24T22:34:29.048Z,98723.84
2023-12-24T22:36:59.381Z,98723.06
2023-12-24T22:39:28.145Z,98735.97
2023-12-24T22:41:57.054Z,98740.84
2023-12-24T22:44:26.812Z,98738.94
2023-12-24T22:46:55.643Z,98726.31
2023-12-24T22:49:24.623Z,98708.22
2023-12-24T22:51:53.566Z,98697.31
2023-12-24T22:54:23.840Z,98698.84
2023-12-24T22:56:52.826Z,98698.56
2023-12-24T22:59:21.711Z,98710.25
2023-12-24T23:01:50.682Z,98706.41
2023-12-24T23:04:19.511Z,98711.88
2023-12-24T23:06:48.331Z,98718.84
2023-12-24T23:09:17.402Z,98719.84
2023-12-24T23:11:47.590Z,98730.91
2023-12-24T23:14:17.067Z,98722.47
2023-12-24T23:16:46.693Z,98720.22
2023-12-24T23:19:15.836Z,98728.28
2023-12-24T23:21:44.657Z,98727.25
2023-12-24T23:24:13.667Z,98719.19
2023-12-24T23:26:42.500Z,98717.00
2023-12-24T23:29:12.609Z,98716.22
2023-12-24T23:31:41.549Z,98723.13
2023-12-24T23:34:10.521Z,98735.97
2023-12-24T23:36:39.404Z,98739.97
2023-12-24T23:39:08.450Z,98734.97
2023-12-24T23:41:37.437Z,98732.56
2023-12-24T23:44:06.577Z,98724.28
2023-12-24T23:46:37.384Z,98720.63
2023-12-24T23:49:06.417Z,98722.53
2023-12-24T23:51:35.318Z,98726.69
2023-12-24T23:54:04.135Z,98720.63
2023-12-24T23:56:32.926Z,98718.94
2023-12-24T23:59:01.688Z,98713.91
